Time;durP1;ratioP1;P1;durP2;ratioP2;P2;SDS_P1;SDS_P2;PMS_P1;PMS_P2;Temp;Humidity;BMP_temperature;BMP_pressure;BME280_temperature;BME280_humidity;BME280_pressure;Samples;Min_cycle;Max_cycle;Signal;HPM_P1;HPM_P2
2022/09/25 00:00:21;;;;;;;;;;;;;;;20.66;47.71;101010.09;5132671;27;20326;-38
2022/09/25 00:02:47;;;;;;;;;;;;;;;20.66;47.90;101010.94;5115694;27;19923;-38
2022/09/25 00:05:12;;;;;;;;;;;;;;;20.65;47.77;101009.28;5132223;27;19930;-39
2022/09/25 00:07:38;;;;;;;;;;;;;;;20.66;47.75;101001.81;5129864;27;19984;-38
2022/09/25 00:10:03;;;;;;;;;;;;;;;20.65;47.78;100998.22;5130424;27;19954;-38
2022/09/25 00:12:29;;;;;;;;;;;;;;;20.67;47.76;101003.44;5132282;27;19973;-38
2022/09/25 00:14:54;;;;;;;;;;;;;;;20.66;47.94;101012.88;5132904;27;19930;-38
2022/09/25 00:17:20;;;;;;;;;;;;;;;20.66;47.82;100999.03;5130043;27;19969;-38
2022/09/25 00:19:49;;;;;;;;;;;;;;;20.65;47.74;101002.94;5116919;27;19924;-38
2022/09/25 00:22:15;;;;;;;;;;;;;;;20.66;47.77;101005.38;5133984;27;19959;-38
2022/09/25 00:24:40;;;;;;;;;;;;;;;20.65;47.91;101002.94;5134489;27;20365;-39
2022/09/25 00:27:07;;;;;;;;;;;;;;;20.64;47.81;101001.25;5137473;27;19924;-38
2022/09/25 00:29:33;;;;;;;;;;;;;;;20.65;47.84;101000.16;5132871;27;19962;-38
2022/09/25 00:31:58;;;;;;;;;;;;;;;20.66;47.69;100999.03;5117107;27;19930;-38
2022/09/25 00:34:24;;;;;;;;;;;;;;;20.67;47.72;100995.16;5133105;27;19934;-38
2022/09/25 00:36:49;;;;;;;;;;;;;;;20.66;47.92;100993.50;5132711;27;20010;-39
2022/09/25 00:39:15;;;;;;;;;;;;;;;20.65;47.95;101000.97;5132019;27;19935;-39
2022/09/25 00:41:40;;;;;;;;;;;;;;;20.66;47.81;100994.31;5135064;27;19938;-39
2022/09/25 00:44:26;;;;;;;;;;;;;;;20.65;47.93;100991.84;5130665;27;20273;-38
2022/09/25 00:46:52;;;;;;;;;;;;;;;20.65;47.72;100998.22;5113514;27;20414;-39
2022/09/25 00:49:24;;;;;;;;;;;;;;;20.65;48.00;101005.69;5129308;27;19924;-38
2022/09/25 00:51:55;;;;;;;;;;;;;;;20.66;47.83;100997.09;5130771;27;20038;-38
2022/09/25 00:54:21;;;;;;;;;;;;;;;20.66;47.83;101005.38;5139110;27;20018;-38
2022/09/25 00:56:47;;;;;;;;;;;;;;;20.65;47.83;101009.28;5115807;27;19963;-38
2022/09/25 00:59:15;;;;;;;;;;;;;;;20.66;47.92;101010.09;5114848;27;19978;-38
2022/09/25 01:01:40;;;;;;;;;;;;;;;20.65;47.75;101006.50;5113477;27;20030;-38
2022/09/25 01:04:06;;;;;;;;;;;;;;;20.64;47.96;101013.16;5136867;27;19931;-38
2022/09/25 01:06:32;;;;;;;;;;;;;;;20.64;47.91;101015.94;5120085;27;20331;-38
2022/09/25 01:08:58;;;;;;;;;;;;;;;20.64;47.91;101013.16;5135849;27;19930;-38
2022/09/25 01:11:23;;;;;;;;;;;;;;;20.64;47.85;101021.47;5137590;27;19965;-38
2022/09/25 01:13:49;;;;;;;;;;;;;;;20.66;48.01;101018.41;5138752;27;19946;-38
2022/09/25 01:16:19;;;;;;;;;;;;;;;20.66;48.02;101015.63;5135718;27;20018;-39
2022/09/25 01:19:05;;;;;;;;;;;;;;;20.65;47.91;101011.22;5120464;27;19924;-38
2022/09/25 01:21:32;;;;;;;;;;;;;;;20.65;47.86;101011.22;5123117;27;20021;-38
2022/09/25 01:24:18;;;;;;;;;;;;;;;20.65;47.96;101017.59;5119132;27;20015;-38
2022/09/25 01:27:05;;;;;;;;;;;;;;;20.65;48.01;101012.06;5123341;27;20394;-38
2022/09/25 01:29:36;;;;;;;;;;;;;;;20.65;47.96;101014.00;5123424;27;20021;-38
2022/09/25 01:32:21;;;;;;;;;;;;;;;20.66;47.86;101019.22;5136261;27;20014;-38
2022/09/25 01:34:54;;;;;;;;;;;;;;;20.64;47.83;101015.94;5120026;27;20014;-38
2022/09/25 01:37:24;;;;;;;;;;;;;;;20.62;47.88;101018.16;5139419;27;20294;-38
2022/09/25 01:39:55;;;;;;;;;;;;;;;20.65;48.04;101020.34;5118467;27;19966;-38
2022/09/25 01:42:21;;;;;;;;;;;;;;;20.64;47.92;101020.63;5137233;27;20082;-39
2022/09/25 01:44:56;;;;;;;;;;;;;;;20.66;47.97;101021.19;5134376;27;20034;-38
2022/09/25 01:47:23;;;;;;;;;;;;;;;20.65;47.93;101017.59;5135262;27;20060;-38
2022/09/25 01:49:50;;;;;;;;;;;;;;;20.66;48.02;101027.53;5134504;27;19999;-38
2022/09/25 01:52:16;;;;;;;;;;;;;;;20.63;47.90;101025.34;5134306;27;20035;-38
2022/09/25 01:54:43;;;;;;;;;;;;;;;20.64;47.83;101028.91;5116075;27;20026;-38
2022/09/25 01:57:11;;;;;;;;;;;;;;;20.63;47.82;101025.34;5134998;27;20035;-39
2022/09/25 01:59:39;;;;;;;;;;;;;;;20.64;47.89;101034.47;5135705;27;20026;-38
2022/09/25 02:02:04;;;;;;;;;;;;;;;20.65;48.09;101031.41;5136253;27;20110;-39
2022/09/25 02:04:33;;;;;;;;;;;;;;;20.66;47.86;101026.72;5131495;27;20762;-39
2022/09/25 02:06:59;;;;;;;;;;;;;;;20.66;47.93;101032.25;5133981;27;19968;-38
2022/09/25 02:09:28;;;;;;;;;;;;;;;20.64;47.87;101024.25;5135704;27;19974;-38
2022/09/25 02:11:55;;;;;;;;;;;;;;;20.64;47.84;101020.63;5115185;27;20014;-38
2022/09/25 02:14:25;;;;;;;;;;;;;;;20.63;48.16;101027.28;5138263;27;19967;-38
2022/09/25 02:16:52;;;;;;;;;;;;;;;20.65;47.93;101028.66;5129991;27;20006;-38
2022/09/25 02:22:19;;;;;;;;;;;;;;;20.63;47.79;101030.88;5117956;27;19962;-38
2022/09/25 02:25:03;;;;;;;;;;;;;;;20.65;47.95;101025.88;5115845;27;19959;-38
2022/09/25 02:27:29;;;;;;;;;;;;;;;20.65;47.97;101023.13;5134876;27;19988;-38
2022/09/25 02:29:55;;;;;;;;;;;;;;;20.64;47.93;101029.78;5139701;27;20319;-39
2022/09/25 02:32:22;;;;;;;;;;;;;;;20.66;47.94;101026.72;5135719;27;19973;-38
2022/09/25 02:34:47;;;;;;;;;;;;;;;20.65;47.87;101025.06;5133850;27;20326;-38
2022/09/25 02:37:14;;;;;;;;;;;;;;;20.65;48.04;101028.66;5135918;27;19931;-38
2022/09/25 02:39:39;;;;;;;;;;;;;;;20.65;47.89;101022.28;5135309;27;20014;-38
2022/09/25 02:42:25;;;;;;;;;;;;;;;20.64;47.92;101026.16;5132476;27;19934;-38
2022/09/25 02:44:55;;;;;;;;;;;;;;;20.65;47.91;101025.88;5120461;27;20356;-38
2022/09/25 02:50:07;;;;;;;;;;;;;;;20.64;48.03;101026.16;5167077;27;20421;-36
2022/09/25 02:52:35;;;;;;;;;;;;;;;20.65;48.03;101025.88;5150822;27;20013;-36
2022/09/25 02:55:03;;;;;;;;;;;;;;;20.64;47.93;101026.16;5151295;27;19993;-36
2022/09/25 02:57:33;;;;;;;;;;;;;;;20.64;47.88;101023.38;5149948;27;19977;-37
2022/09/25 02:59:59;;;;;;;;;;;;;;;20.64;47.94;101021.47;5150309;27;19971;-37
2022/09/25 03:02:26;;;;;;;;;;;;;;;20.64;47.97;101024.25;5151570;27;20018;-37
2022/09/25 03:04:51;;;;;;;;;;;;;;;20.65;47.95;101025.88;5152107;27;19923;-36
2022/09/25 03:07:17;;;;;;;;;;;;;;;20.63;48.13;101018.97;5152010;27;19933;-36
2022/09/25 03:09:45;;;;;;;;;;;;;;;20.64;48.03;101021.47;5150587;27;20374;-36
2022/09/25 03:12:11;;;;;;;;;;;;;;;20.64;47.96;101029.78;5151271;27;19962;-36
2022/09/25 03:14:36;;;;;;;;;;;;;;;20.63;47.88;101033.63;5152747;27;19931;-36
2022/09/25 03:17:03;;;;;;;;;;;;;;;20.64;48.08;101026.16;5148861;27;19980;-36
2022/09/25 03:19:29;;;;;;;;;;;;;;;20.63;47.98;101027.28;5148830;27;20388;-36
2022/09/25 03:21:54;;;;;;;;;;;;;;;20.64;48.15;101034.47;5132847;27;19974;-36
2022/09/25 03:24:20;;;;;;;;;;;;;;;20.63;48.18;101039.16;5151000;27;20015;-36
2022/09/25 03:26:46;;;;;;;;;;;;;;;20.64;47.99;101038.06;5150965;27;19923;-37
2022/09/25 03:29:13;;;;;;;;;;;;;;;20.65;48.10;101036.13;5151389;27;20022;-37
2022/09/25 03:31:41;;;;;;;;;;;;;;;20.64;47.96;101040.84;5131953;27;20374;-37
2022/09/25 03:34:06;;;;;;;;;;;;;;;20.65;48.08;101041.66;5152355;27;19951;-36
2022/09/25 03:36:33;;;;;;;;;;;;;;;20.65;48.06;101044.44;5149395;27;19941;-37
2022/09/25 03:38:59;;;;;;;;;;;;;;;20.65;47.95;101034.19;5155407;27;19923;-37
2022/09/25 03:41:25;;;;;;;;;;;;;;;20.64;47.89;101032.53;5154490;27;19946;-36
2022/09/25 03:43:51;;;;;;;;;;;;;;;20.64;47.87;101032.53;5147990;27;19978;-36
2022/09/25 03:46:18;;;;;;;;;;;;;;;20.65;48.12;101036.13;5140340;27;19955;-36
2022/09/25 03:48:43;;;;;;;;;;;;;;;20.64;47.98;101034.47;5144988;27;20012;-36
2022/09/25 03:51:09;;;;;;;;;;;;;;;20.64;48.17;101037.22;5143578;27;20263;-36
2022/09/25 03:53:35;;;;;;;;;;;;;;;20.64;48.11;101034.47;5145495;27;19934;-36
2022/09/25 03:56:03;;;;;;;;;;;;;;;20.64;48.17;101031.69;5143404;27;19923;-37
2022/09/25 03:58:28;;;;;;;;;;;;;;;20.62;48.13;101037.53;5125048;27;20018;-37
2022/09/25 04:00:56;;;;;;;;;;;;;;;20.64;48.17;101038.06;5133181;27;19923;-37
2022/09/25 04:03:22;;;;;;;;;;;;;;;20.65;48.08;101041.66;5130374;28;19931;-36
2022/09/25 04:05:48;;;;;;;;;;;;;;;20.63;47.99;101041.13;5110371;28;20394;-37
2022/09/25 04:08:13;;;;;;;;;;;;;;;20.64;48.00;101040.84;5130844;28;20034;-37
2022/09/25 04:10:39;;;;;;;;;;;;;;;20.63;48.05;101041.13;5128739;28;19924;-36
2022/09/25 04:13:05;;;;;;;;;;;;;;;20.63;47.97;101036.41;5130957;28;20278;-36
2022/09/25 04:15:30;;;;;;;;;;;;;;;20.64;47.82;101040.84;5128363;27;19924;-37
2022/09/25 04:17:56;;;;;;;;;;;;;;;20.64;48.00;101035.31;5130763;28;19924;-36
2022/09/25 04:20:22;;;;;;;;;;;;;;;20.62;48.17;101037.53;5129844;28;19934;-37
2022/09/25 04:22:47;;;;;;;;;;;;;;;20.62;48.17;101034.75;5130297;28;20351;-37
2022/09/25 04:25:13;;;;;;;;;;;;;;;20.64;47.97;101031.69;5130679;28;19976;-37
2022/09/25 04:27:38;;;;;;;;;;;;;;;20.64;48.02;101032.53;5129982;28;19928;-37
2022/09/25 04:30:04;;;;;;;;;;;;;;;20.64;47.84;101034.47;5129684;28;19923;-37
2022/09/25 04:35:15;;;;;;;;;;;;;;;20.65;47.94;101030.59;5114349;28;20018;-37
2022/09/25 04:37:41;;;;;;;;;;;;;;;20.63;48.19;101022.56;5129884;28;19932;-37
2022/09/25 04:40:06;;;;;;;;;;;;;;;20.63;48.15;101033.63;5129779;28;19931;-37
2022/09/25 04:42:32;;;;;;;;;;;;;;;20.62;47.98;101026.44;5129706;28;20429;-36
2022/09/25 04:44:57;;;;;;;;;;;;;;;20.63;47.97;101035.56;5129510;28;19932;-37
2022/09/25 04:47:24;;;;;;;;;;;;;;;20.63;48.21;101041.13;5126024;28;19930;-40
2022/09/25 04:49:50;;;;;;;;;;;;;;;20.63;48.05;101038.34;5129218;28;20030;-39
2022/09/25 04:52:16;;;;;;;;;;;;;;;20.63;48.03;101044.69;5111906;28;19935;-39
2022/09/25 04:54:42;;;;;;;;;;;;;;;20.64;48.02;101048.28;5129116;28;20026;-40
2022/09/25 04:57:08;;;;;;;;;;;;;;;20.63;48.18;101041.94;5129670;28;20408;-39
2022/09/25 04:59:34;;;;;;;;;;;;;;;20.64;48.17;101042.75;5111166;28;20017;-39
2022/09/25 05:01:59;;;;;;;;;;;;;;;20.64;48.09;101042.75;5128745;28;19924;-39
2022/09/25 05:04:25;;;;;;;;;;;;;;;20.62;48.00;101037.53;5129331;28;19967;-39
2022/09/25 05:06:51;;;;;;;;;;;;;;;20.62;48.25;101042.22;5128104;28;20328;-39
2022/09/25 05:09:16;;;;;;;;;;;;;;;20.63;48.01;101039.16;5129076;28;19930;-39
2022/09/25 05:11:42;;;;;;;;;;;;;;;20.63;48.10;101039.16;5128499;27;20441;-39
2022/09/25 05:14:07;;;;;;;;;;;;;;;20.63;48.10;101035.56;5128359;28;20328;-39
2022/09/25 05:16:33;;;;;;;;;;;;;;;20.62;48.02;101037.53;5125296;27;19923;-39
2022/09/25 05:18:59;;;;;;;;;;;;;;;20.61;48.11;101046.94;5129947;28;20470;-39
2022/09/25 05:21:24;;;;;;;;;;;;;;;20.63;48.06;101043.88;5128659;28;19992;-39
2022/09/25 05:23:50;;;;;;;;;;;;;;;20.62;48.22;101045.00;5129780;28;20350;-40
2022/09/25 05:26:16;;;;;;;;;;;;;;;20.64;48.14;101040.00;5128849;28;19924;-39
2022/09/25 05:28:41;;;;;;;;;;;;;;;20.63;48.05;101047.47;5129246;28;19931;-39
2022/09/25 05:31:07;;;;;;;;;;;;;;;20.63;48.08;101041.13;5128955;28;19927;-39
2022/09/25 05:33:33;;;;;;;;;;;;;;;20.64;48.13;101042.75;5128789;28;19928;-39
2022/09/25 05:36:00;;;;;;;;;;;;;;;20.64;48.09;101037.22;5128206;28;19931;-39
2022/09/25 05:38:25;;;;;;;;;;;;;;;20.62;47.98;101037.53;5129504;28;20381;-39
2022/09/25 05:40:51;;;;;;;;;;;;;;;20.64;48.09;101042.75;5126858;28;19923;-39
2022/09/25 05:43:17;;;;;;;;;;;;;;;20.63;48.02;101041.94;5127833;28;19930;-39
2022/09/25 05:45:42;;;;;;;;;;;;;;;20.61;48.25;101044.19;5126058;28;21134;-39
2022/09/25 05:48:08;;;;;;;;;;;;;;;20.61;48.29;101044.19;5129039;28;19930;-39
2022/09/25 05:50:34;;;;;;;;;;;;;;;20.62;48.08;101045.81;5128647;28;19931;-39
2022/09/25 05:53:00;;;;;;;;;;;;;;;20.63;48.04;101053.00;5129978;28;19931;-39
2022/09/25 05:55:25;;;;;;;;;;;;;;;20.61;48.26;101058.00;5128949;28;20062;-39
2022/09/25 05:57:51;;;;;;;;;;;;;;;20.62;48.03;101056.88;5109279;28;20351;-39
2022/09/25 06:00:17;;;;;;;;;;;;;;;20.64;48.12;101048.28;5129506;28;19951;-39
2022/09/25 06:02:42;;;;;;;;;;;;;;;20.62;48.03;101048.59;5110074;28;19973;-41
2022/09/25 06:05:08;;;;;;;;;;;;;;;20.63;48.08;101054.94;5127371;28;19930;-39
2022/09/25 06:07:34;;;;;;;;;;;;;;;20.63;48.05;101055.78;5128798;28;19972;-39
2022/09/25 06:09:59;;;;;;;;;;;;;;;20.63;48.23;101053.00;5109433;27;19941;-39
2022/09/25 06:12:27;;;;;;;;;;;;;;;20.62;48.29;101051.34;5128622;28;19923;-39
2022/09/25 06:14:53;;;;;;;;;;;;;;;20.62;48.21;101056.06;5127026;28;19948;-39
2022/09/25 06:17:19;;;;;;;;;;;;;;;20.62;48.25;101061.59;5126493;27;19988;-39
2022/09/25 06:19:44;;;;;;;;;;;;;;;20.61;48.21;101057.19;5128030;28;20025;-39
2022/09/25 06:22:10;;;;;;;;;;;;;;;20.62;48.30;101058.84;5128324;28;19935;-39
2022/09/25 06:24:35;;;;;;;;;;;;;;;20.62;48.27;101059.66;5127272;28;20024;-39
2022/09/25 06:27:01;;;;;;;;;;;;;;;20.61;48.29;101059.97;5127679;28;19961;-39
2022/09/25 06:29:26;;;;;;;;;;;;;;;20.61;48.16;101060.78;5128186;28;19931;-39
2022/09/25 06:31:52;;;;;;;;;;;;;;;20.62;48.07;101059.66;5128891;28;19927;-39
2022/09/25 06:34:18;;;;;;;;;;;;;;;20.62;48.15;101070.72;5128327;28;20448;-39
2022/09/25 06:36:43;;;;;;;;;;;;;;;20.64;48.09;101073.19;5125202;28;20004;-39
2022/09/25 06:39:09;;;;;;;;;;;;;;;20.62;48.16;101070.72;5128778;28;20006;-39
2022/09/25 06:41:35;;;;;;;;;;;;;;;20.62;48.17;101078.22;5128087;28;20306;-39
2022/09/25 06:44:01;;;;;;;;;;;;;;;20.62;48.12;101084.56;5126630;28;20019;-39
2022/09/25 06:46:26;;;;;;;;;;;;;;;20.61;48.34;101077.38;5123775;28;19924;-39
2022/09/25 06:48:53;;;;;;;;;;;;;;;20.62;48.19;101069.91;5125558;28;19928;-39
2022/09/25 06:51:19;;;;;;;;;;;;;;;20.62;48.22;101072.66;5126748;28;19959;-39
2022/09/25 06:53:45;;;;;;;;;;;;;;;20.61;48.26;101076.56;5127617;28;20384;-39
2022/09/25 06:56:10;;;;;;;;;;;;;;;20.61;48.16;101073.78;5127953;28;19931;-39
2022/09/25 06:58:36;;;;;;;;;;;;;;;20.61;48.21;101077.38;5127598;28;19931;-39
2022/09/25 07:01:01;;;;;;;;;;;;;;;20.61;48.12;101077.38;5127026;28;19934;-39
2022/09/25 07:03:49;;;;;;;;;;;;;;;20.61;48.32;101073.78;5127383;28;19928;-39
2022/09/25 07:06:15;;;;;;;;;;;;;;;20.62;48.31;101078.22;5126440;28;20018;-39
2022/09/25 07:08:42;;;;;;;;;;;;;;;20.61;48.32;101087.63;5127478;28;20368;-39
2022/09/25 07:11:10;;;;;;;;;;;;;;;20.62;48.17;101081.78;5108749;28;19981;-39
2022/09/25 07:13:36;;;;;;;;;;;;;;;20.61;48.28;101088.44;5109962;28;19969;-39
2022/09/25 07:16:04;;;;;;;;;;;;;;;20.62;48.24;101075.44;5123425;27;19923;-39
2022/09/25 07:18:29;;;;;;;;;;;;;;;20.61;48.17;101082.09;5108688;28;20258;-39
2022/09/25 07:21:00;;;;;;;;;;;;;;;20.62;48.05;101084.56;5128087;28;19981;-39
2022/09/25 07:23:27;;;;;;;;;;;;;;;20.61;48.31;101084.88;5108463;28;20014;-39
2022/09/25 07:25:53;;;;;;;;;;;;;;;20.61;48.22;101093.16;5127240;28;20177;-39
2022/09/25 07:28:18;;;;;;;;;;;;;;;20.63;48.29;101088.16;5127881;28;19928;-39
2022/09/25 07:30:44;;;;;;;;;;;;;;;20.62;48.19;101097.56;5126651;28;19931;-39
2022/09/25 07:33:10;;;;;;;;;;;;;;;20.61;48.34;101093.16;5128918;28;20083;-39
2022/09/25 07:35:36;;;;;;;;;;;;;;;20.59;48.16;101087.91;5127864;27;20337;-39
2022/09/25 07:38:02;;;;;;;;;;;;;;;20.63;48.36;101104.75;5131099;28;20378;-39
2022/09/25 07:40:27;;;;;;;;;;;;;;;20.63;48.25;101104.75;5130691;28;20004;-39
2022/09/25 07:42:57;;;;;;;;;;;;;;;20.62;48.28;101103.09;5112621;28;19931;-39
2022/09/25 07:45:22;;;;;;;;;;;;;;;20.63;47.94;101104.75;5128510;28;19974;-39
2022/09/25 07:47:48;;;;;;;;;;;;;;;20.63;48.25;101099.22;5129150;28;19934;-39
2022/09/25 07:50:13;;;;;;;;;;;;;;;20.62;48.28;101090.09;5129839;28;19927;-39
2022/09/25 07:52:41;;;;;;;;;;;;;;;20.61;48.32;101096.75;5129586;28;19976;-39
2022/09/25 07:55:06;;;;;;;;;;;;;;;20.61;48.32;101098.69;5131029;28;19931;-39
2022/09/25 07:57:33;;;;;;;;;;;;;;;20.61;48.30;101101.47;5131067;28;19923;-37
2022/09/25 07:59:58;;;;;;;;;;;;;;;20.61;48.18;101095.94;5130434;28;20006;-37
2022/09/25 08:02:24;;;;;;;;;;;;;;;20.62;48.19;101097.56;5129434;28;19934;-37
2022/09/25 08:04:49;;;;;;;;;;;;;;;20.61;48.21;101091.22;5129518;28;20305;-37
2022/09/25 08:07:15;;;;;;;;;;;;;;;20.62;48.17;101086.50;5131265;28;19924;-37
2022/09/25 08:09:40;;;;;;;;;;;;;;;20.64;48.09;101095.34;5129461;28;19923;-37
2022/09/25 08:12:09;;;;;;;;;;;;;;;20.64;48.19;101098.09;5130099;28;20285;-37
2022/09/25 08:14:34;;;;;;;;;;;;;;;20.61;48.14;101096.75;5111982;28;19963;-38
2022/09/25 08:17:00;;;;;;;;;;;;;;;20.61;48.20;101098.69;5127987;27;19923;-37
2022/09/25 08:19:26;;;;;;;;;;;;;;;20.61;48.11;101105.06;5130533;28;19927;-37
2022/09/25 08:21:52;;;;;;;;;;;;;;;20.61;48.31;101099.53;5130051;28;20353;-38
2022/09/25 08:24:17;;;;;;;;;;;;;;;20.61;48.32;101096.75;5130533;28;20365;-37
2022/09/25 08:26:43;;;;;;;;;;;;;;;20.63;48.15;101104.75;5129322;28;19935;-37
2022/09/25 08:29:09;;;;;;;;;;;;;;;20.60;48.31;101092.34;5130985;28;19924;-37
2022/09/25 08:31:34;;;;;;;;;;;;;;;20.61;48.33;101096.75;5129974;28;19927;-37
2022/09/25 08:34:00;;;;;;;;;;;;;;;20.63;48.37;101097.28;5130183;28;19934;-37
2022/09/25 08:36:47;;;;;;;;;;;;;;;20.61;48.07;101096.75;5113376;28;19930;-37
2022/09/25 08:39:12;;;;;;;;;;;;;;;20.62;48.13;101095.63;5111986;28;20228;-37
2022/09/25 08:41:44;;;;;;;;;;;;;;;20.62;48.28;101095.63;5129564;28;19927;-37
2022/09/25 08:44:26;;;;;;;;;;;;;;;20.62;48.32;101097.56;5129738;28;20026;-37
2022/09/25 08:49:47;;;;;;;;;;;;;;;20.63;48.24;101093.69;5113029;28;19943;-37
2022/09/25 08:52:14;;;;;;;;;;;;;;;20.62;48.15;101092.88;5111113;28;19989;-37
2022/09/25 08:54:40;;;;;;;;;;;;;;;20.61;48.15;101091.22;5129268;28;20026;-37
2022/09/25 08:57:28;;;;;;;;;;;;;;;20.61;48.21;101093.97;5129540;28;19963;-37
2022/09/25 08:59:54;;;;;;;;;;;;;;;20.60;48.25;101092.34;5127604;28;20025;-37
2022/09/25 09:02:34;;;;;;;;;;;;;;;20.61;48.06;101096.75;5129720;28;19931;-37
2022/09/25 09:05:00;;;;;;;;;;;;;;;20.62;48.33;101097.56;5128800;28;20286;-37
2022/09/25 09:07:34;;;;;;;;;;;;;;;20.62;48.24;101097.56;5129652;28;20342;-37
2022/09/25 09:10:02;;;;;;;;;;;;;;;20.62;48.24;101100.34;5127860;28;20014;-37
2022/09/25 09:12:32;;;;;;;;;;;;;;;20.61;48.21;101102.28;5111558;28;19978;-37
2022/09/25 09:15:00;;;;;;;;;;;;;;;20.62;48.32;101103.94;5128086;28;20360;-37
2022/09/25 09:17:26;;;;;;;;;;;;;;;20.61;48.39;101098.69;5123741;28;20385;-37
2022/09/25 09:19:54;;;;;;;;;;;;;;;20.61;48.18;101104.22;5128464;28;19923;-37
2022/09/25 09:22:20;;;;;;;;;;;;;;;20.62;48.36;101103.09;5129346;28;19966;-37
2022/09/25 09:24:50;;;;;;;;;;;;;;;20.63;48.21;101096.44;5128424;28;20014;-37
2022/09/25 09:27:23;;;;;;;;;;;;;;;20.61;48.30;101093.16;5130484;28;20010;-37
2022/09/25 09:29:55;;;;;;;;;;;;;;;20.61;48.23;101093.16;5129724;28;19978;-37
2022/09/25 09:32:24;;;;;;;;;;;;;;;20.61;48.15;101093.16;5128830;28;20010;-37
2022/09/25 09:34:57;;;;;;;;;;;;;;;20.63;48.24;101090.91;5128053;28;20000;-37
2022/09/25 09:37:52;;;;;;;;;;;;;;;20.62;48.19;101095.63;5127195;28;19931;-37
2022/09/25 09:40:20;;;;;;;;;;;;;;;20.61;48.21;101087.63;5127136;28;19979;-37
2022/09/25 09:42:49;;;;;;;;;;;;;;;20.62;48.19;101086.50;5128835;28;19932;-37
2022/09/25 09:45:32;;;;;;;;;;;;;;;20.62;48.25;101086.50;5127241;28;20472;-37
2022/09/25 09:48:01;;;;;;;;;;;;;;;20.61;48.12;101093.16;5130279;27;20195;-37
2022/09/25 09:50:36;;;;;;;;;;;;;;;20.63;48.28;101091.75;5128141;28;19931;-37
2022/09/25 09:53:11;;;;;;;;;;;;;;;20.62;48.13;101081.78;5111423;28;20026;-38
2022/09/25 09:55:39;;;;;;;;;;;;;;;20.61;48.37;101082.91;5128576;28;19967;-37
2022/09/25 09:58:07;;;;;;;;;;;;;;;20.61;48.33;101082.91;5127829;27;19959;-37
2022/09/25 10:00:33;;;;;;;;;;;;;;;20.62;48.21;101080.97;5109132;28;19939;-37
2022/09/25 10:03:01;;;;;;;;;;;;;;;20.61;48.37;101080.16;5127634;28;20018;-37
2022/09/25 10:05:31;;;;;;;;;;;;;;;20.60;48.31;101074.91;5128002;28;19927;-37
2022/09/25 10:07:57;;;;;;;;;;;;;;;20.61;48.17;101077.38;5109661;28;19978;-37
2022/09/25 10:10:28;;;;;;;;;;;;;;;20.61;48.30;101080.16;5126965;28;19923;-37
2022/09/25 10:12:53;;;;;;;;;;;;;;;20.61;48.30;101080.16;5128505;28;20014;-39
2022/09/25 10:15:26;;;;;;;;;;;;;;;20.62;48.36;101072.66;5128969;28;19978;-39
2022/09/25 10:17:53;;;;;;;;;;;;;;;20.62;48.28;101078.22;5128734;28;19923;-40
2022/09/25 10:20:19;;;;;;;;;;;;;;;20.62;48.16;101067.97;5128047;28;20006;-40
2022/09/25 10:22:45;;;;;;;;;;;;;;;20.62;48.00;101067.13;5109532;28;19982;-39
2022/09/25 10:25:10;;;;;;;;;;;;;;;20.61;48.39;101073.78;5127346;28;19969;-40
2022/09/25 10:27:40;;;;;;;;;;;;;;;20.61;48.39;101071.84;5128937;28;20007;-40
2022/09/25 10:30:11;;;;;;;;;;;;;;;20.60;48.33;101067.44;5128591;28;20349;-40
2022/09/25 10:32:41;;;;;;;;;;;;;;;20.62;48.31;101058.84;5106396;28;19955;-39
2022/09/25 10:35:15;;;;;;;;;;;;;;;20.61;48.16;101069.09;5127835;28;19960;-39
2022/09/25 10:37:40;;;;;;;;;;;;;;;20.63;48.28;101066.84;5127761;28;20010;-39
2022/09/25 10:40:07;;;;;;;;;;;;;;;20.61;48.17;101060.78;5128567;28;19931;-39
2022/09/25 10:42:36;;;;;;;;;;;;;;;20.62;48.32;101067.97;5128750;28;20005;-39
2022/09/25 10:45:21;;;;;;;;;;;;;;;20.62;48.17;101072.66;5126994;28;19978;-39
2022/09/25 10:50:35;;;;;;;;;;;;;;;20.58;48.27;101066.06;5095937;28;20030;-39
2022/09/25 10:53:02;;;;;;;;;;;;;;;20.61;48.32;101065.50;5126932;28;20066;-39
2022/09/25 10:55:33;;;;;;;;;;;;;;;20.60;48.28;101064.66;5127115;28;19959;-39
2022/09/25 10:58:19;;;;;;;;;;;;;;;20.61;48.28;101069.09;5126834;28;20404;-39
2022/09/25 11:00:48;;;;;;;;;;;;;;;20.63;48.13;101063.25;5110710;28;19931;-39
2022/09/25 11:03:19;;;;;;;;;;;;;;;20.62;48.30;101070.72;5128259;28;19984;-39
2022/09/25 11:05:46;;;;;;;;;;;;;;;20.62;48.16;101067.13;5108596;28;20392;-39
2022/09/25 11:08:12;;;;;;;;;;;;;;;20.62;48.17;101058.84;5125730;28;19963;-39
2022/09/25 11:10:46;;;;;;;;;;;;;;;20.62;48.13;101056.06;5129044;27;20289;-39
2022/09/25 11:13:19;;;;;;;;;;;;;;;20.61;48.30;101054.41;5131227;28;19955;-39
2022/09/25 11:15:46;;;;;;;;;;;;;;;20.60;48.14;101061.06;5129519;28;19966;-39
2022/09/25 11:18:29;;;;;;;;;;;;;;;20.61;48.32;101054.41;5132016;28;20066;-39
2022/09/25 11:21:03;;;;;;;;;;;;;;;20.61;48.12;101060.78;5129258;28;20023;-39
2022/09/25 11:23:32;;;;;;;;;;;;;;;20.63;48.21;101052.19;5113030;28;19994;-39
2022/09/25 11:26:04;;;;;;;;;;;;;;;20.61;48.31;101049.72;5112356;28;20354;-39
2022/09/25 11:28:33;;;;;;;;;;;;;;;20.60;48.23;101053.59;5131016;28;20333;-39
2022/09/25 11:31:05;;;;;;;;;;;;;;;20.62;48.12;101053.31;5112722;28;19992;-39
2022/09/25 11:33:36;;;;;;;;;;;;;;;20.62;48.30;101050.53;5112538;28;20037;-39
2022/09/25 11:36:04;;;;;;;;;;;;;;;20.61;48.15;101046.94;5130254;28;19977;-39
2022/09/25 11:41:22;;;;;;;;;;;;;;;20.61;48.18;101046.13;5114650;28;20041;-39
2022/09/25 11:43:57;;;;;;;;;;;;;;;20.59;48.27;101049.16;5129766;28;20018;-39
2022/09/25 11:46:29;;;;;;;;;;;;;;;20.60;48.18;101042.53;5127960;28;19927;-39
2022/09/25 11:48:59;;;;;;;;;;;;;;;20.61;48.25;101037.81;5129786;28;20387;-39
2022/09/25 11:51:38;;;;;;;;;;;;;;;20.59;48.15;101042.81;5130342;28;20026;-39
2022/09/25 11:54:09;;;;;;;;;;;;;;;20.61;48.24;101033.09;5129719;28;20412;-39
2022/09/25 11:57:10;;;;;;;;;;;;;;;20.61;48.17;101033.09;5113909;28;19931;-39
2022/09/25 12:02:39;;;;;;;;;;;;;;;20.60;48.20;101031.47;5170517;27;20456;-36
2022/09/25 12:05:13;;;;;;;;;;;;;;;20.60;48.18;101030.63;5156427;27;19931;-36
2022/09/25 12:07:43;;;;;;;;;;;;;;;20.63;48.28;101018.97;5155244;27;20001;-37
2022/09/25 12:10:13;;;;;;;;;;;;;;;20.62;48.19;101026.44;5152952;27;20058;-36
2022/09/25 12:12:58;;;;;;;;;;;;;;;20.62;48.25;101014.56;5155047;27;19970;-37
2022/09/25 12:15:35;;;;;;;;;;;;;;;20.63;48.10;101022.56;5133870;27;20251;-36
2022/09/25 12:18:20;;;;;;;;;;;;;;;20.63;48.14;101010.66;5152322;27;19966;-36
2022/09/25 12:20:49;;;;;;;;;;;;;;;20.61;48.21;101018.44;5134526;27;20022;-37
2022/09/25 12:23:19;;;;;;;;;;;;;;;20.60;48.25;101009.31;5134269;27;19962;-36
2022/09/25 12:26:05;;;;;;;;;;;;;;;20.61;48.30;101013.75;5151144;27;19974;-36
2022/09/25 12:28:51;;;;;;;;;;;;;;;20.62;48.10;101006.25;5140730;27;20407;-37
2022/09/25 12:31:22;;;;;;;;;;;;;;;20.62;48.17;101006.25;5136681;27;20055;-36
2022/09/25 12:33:51;;;;;;;;;;;;;;;20.61;48.19;101008.22;5157570;27;19923;-36
2022/09/25 12:36:21;;;;;;;;;;;;;;;20.61;48.38;101007.38;5150223;27;20014;-37
2022/09/25 12:38:50;;;;;;;;;;;;;;;20.61;48.33;101005.44;5151320;27;19974;-36
2022/09/25 12:41:33;;;;;;;;;;;;;;;20.59;48.17;100996.59;5150736;27;20014;-37
2022/09/25 12:44:03;;;;;;;;;;;;;;;20.61;48.30;101002.66;5153470;27;19970;-37
2022/09/25 12:46:31;;;;;;;;;;;;;;;20.61;48.17;100988.00;5147705;27;20416;-36
2022/09/25 12:49:01;;;;;;;;;;;;;;;20.60;48.25;100983.59;5131312;27;19985;-36
2022/09/25 12:51:32;;;;;;;;;;;;;;;20.61;48.33;100983.31;5149170;27;20044;-36
2022/09/25 12:53:59;;;;;;;;;;;;;;;20.62;48.32;100982.19;5153811;27;20389;-36
2022/09/25 12:56:26;;;;;;;;;;;;;;;20.64;48.03;100973.56;5151655;27;20006;-36
2022/09/25 12:58:58;;;;;;;;;;;;;;;20.63;48.16;100966.41;5149444;27;19931;-36
2022/09/25 13:04:15;;;;;;;;;;;;;;;20.61;48.19;100966.69;5180154;27;20428;-37